Time;durP1;ratioP1;P1;durP2;ratioP2;P2;SDS_P1;SDS_P2;PMS_P1;PMS_P2;Temp;Humidity;BMP_temperature;BMP_pressure;BME280_temperature;BME280_humidity;BME280_pressure;Samples;Min_cycle;Max_cycle;Signal;HPM_P1;HPM_P2
2021/08/05 00:02:10;;;;;;;9.73;4.57;;;;;;;-140.05;100.00;61859.38;5030580;28;20575;-74
2021/08/05 00:04:38;;;;;;;8.40;3.80;;;;;;;-140.05;100.00;61859.38;5030452;28;20251;-76
2021/08/05 00:07:05;;;;;;;9.70;4.47;;;;;;;-140.05;100.00;61859.38;5030853;28;20193;-74
2021/08/05 00:09:33;;;;;;;14.80;4.67;;;;;;;-140.05;100.00;61859.38;5029649;28;20621;-78
2021/08/05 00:12:00;;;;;;;15.03;4.57;;;;;;;-140.05;100.00;61859.38;5010565;28;20267;-76
2021/08/05 00:14:28;;;;;;;13.00;4.47;;;;;;;-140.05;100.00;61859.38;5010956;28;20285;-75
2021/08/05 00:16:55;;;;;;;8.50;4.50;;;;;;;-140.05;100.00;61859.38;5038512;28;20256;-75
2021/08/05 00:19:24;;;;;;;12.63;4.33;;;;;;;-140.05;100.00;61859.38;5020355;28;20202;-77
2021/08/05 00:21:51;;;;;;;7.70;4.07;;;;;;;-140.05;100.00;61859.38;5027886;28;20215;-75
2021/08/05 00:24:18;;;;;;;15.47;4.83;;;;;;;-140.05;100.00;61859.38;5020400;28;20201;-74
2021/08/05 00:26:45;;;;;;;9.20;4.50;;;;;;;-140.05;100.00;61859.38;5026684;28;20675;-76
2021/08/05 00:29:12;;;;;;;9.47;4.53;;;;;;;-140.05;100.00;61859.38;5029989;28;20185;-75
2021/08/05 00:31:39;;;;;;;8.23;4.13;;;;;;;-140.05;100.00;61859.38;5028150;28;20228;-75
2021/08/05 00:34:06;;;;;;;12.20;4.87;;;;;;;-140.05;100.00;61859.38;5030194;28;20200;-73
2021/08/05 00:36:33;;;;;;;10.20;4.53;;;;;;;-140.05;100.00;61859.38;5015227;28;20296;-75
2021/08/05 00:39:00;;;;;;;13.23;4.70;;;;;;;-140.05;100.00;61859.38;5029541;28;20280;-73
2021/08/05 00:41:28;;;;;;;14.67;4.47;;;;;;;-140.05;100.00;61859.38;5029765;28;20244;-77
2021/08/05 00:43:58;;;;;;;11.80;4.97;;;;;;;-140.05;100.00;61859.38;5028641;28;20225;-73
2021/08/05 00:46:25;;;;;;;14.43;4.93;;;;;;;-140.05;100.00;61859.38;5028613;28;20197;-75
2021/08/05 00:48:52;;;;;;;9.17;4.70;;;;;;;-140.05;100.00;61859.38;5026106;28;20216;-73
2021/08/05 00:51:20;;;;;;;9.60;4.80;;;;;;;-140.05;100.00;61859.38;5028574;28;20584;-74
2021/08/05 00:53:47;;;;;;;8.93;4.47;;;;;;;-140.05;100.00;61859.38;5030674;28;20675;-77
2021/08/05 00:56:15;;;;;;;11.43;4.83;;;;;;;-140.05;100.00;61859.38;5014646;28;20189;-77
2021/08/05 00:58:42;;;;;;;10.00;4.97;;;;;;;-140.05;100.00;61859.38;5019612;28;20288;-78
2021/08/05 01:01:23;;;;;;;7.23;4.60;;;;;;;-140.05;100.00;61859.38;5024384;28;20220;-77
2021/08/05 01:03:57;;;;;;;10.30;4.90;;;;;;;-140.05;100.00;61859.38;5031044;28;20259;-79
2021/08/05 01:06:27;;;;;;;9.23;4.50;;;;;;;-140.05;100.00;61859.38;5015876;28;20216;-78
2021/08/05 01:09:16;;;;;;;9.90;4.53;;;;;;;-140.05;100.00;61859.38;5034461;28;20733;-80
2021/08/05 01:11:50;;;;;;;11.33;4.43;;;;;;;-140.05;100.00;61859.38;5030523;28;20324;-81
2021/08/05 01:14:20;;;;;;;12.90;4.87;;;;;;;-140.05;100.00;61859.38;5030692;28;20603;-73
2021/08/05 01:16:49;;;;;;;9.40;4.67;;;;;;;-140.05;100.00;61859.38;5038271;28;20231;-75
2021/08/05 01:19:36;;;;;;;9.07;5.47;;;;;;;-140.05;100.00;61859.38;5024061;28;20204;-75
2021/08/05 01:22:13;;;;;;;8.17;4.37;;;;;;;-140.05;100.00;61859.38;5032766;28;20274;-77
2021/08/05 01:24:49;;;;;;;12.87;4.97;;;;;;;-140.05;100.00;61859.38;5020825;28;20252;-76
2021/08/05 01:27:17;;;;;;;9.30;4.87;;;;;;;-140.05;100.00;61859.38;5020114;28;20746;-80
2021/08/05 01:29:44;;;;;;;12.73;5.50;;;;;;;-140.05;100.00;61859.38;5033553;28;20213;-78
2021/08/05 01:32:11;;;;;;;9.93;5.07;;;;;;;-140.05;100.00;61859.38;5013941;28;20186;-76
2021/08/05 01:34:38;;;;;;;10.70;5.50;;;;;;;-140.05;100.00;61859.38;5014946;28;20201;-75
2021/08/05 01:37:08;;;;;;;11.00;5.13;;;;;;;-140.05;100.00;61859.38;5028149;28;20194;-76
2021/08/05 01:39:35;;;;;;;11.47;5.07;;;;;;;-140.05;100.00;61859.38;5013920;28;20217;-75
2021/08/05 01:42:02;;;;;;;13.80;5.33;;;;;;;-140.05;100.00;61859.38;5033806;28;20602;-73
2021/08/05 01:44:30;;;;;;;15.13;5.10;;;;;;;-140.05;100.00;61859.38;5018836;28;20320;-76
2021/08/05 01:46:58;;;;;;;11.70;5.13;;;;;;;-140.05;100.00;61859.38;5041049;28;20198;-75
2021/08/05 01:49:27;;;;;;;11.43;5.37;;;;;;;-140.05;100.00;61859.38;5033057;28;20193;-75
2021/08/05 01:51:55;;;;;;;13.57;5.87;;;;;;;-140.05;100.00;61859.38;5032918;28;20243;-77
2021/08/05 01:54:22;;;;;;;8.90;4.73;;;;;;;-140.05;100.00;61859.38;5018948;28;20695;-77
2021/08/05 01:56:49;;;;;;;10.77;5.00;;;;;;;-140.05;100.00;61859.38;5031597;28;20283;-79
2021/08/05 01:59:16;;;;;;;14.83;6.07;;;;;;;-140.05;100.00;61859.38;5031644;28;20204;-72
2021/08/05 02:01:43;;;;;;;11.17;5.10;;;;;;;-140.05;100.00;61859.38;5031400;28;20568;-76
2021/08/05 02:04:42;;;;;;;11.83;5.27;;;;;;;-140.05;100.00;61859.38;5033750;28;20201;-75
2021/08/05 02:07:24;;;;;;;18.13;6.43;;;;;;;-140.05;100.00;61859.38;5022365;28;20201;-72
2021/08/05 02:10:03;;;;;;;17.43;7.20;;;;;;;-140.05;100.00;61859.38;5034095;28;20196;-75
2021/08/05 02:13:04;;;;;;;18.23;6.60;;;;;;;-140.05;100.00;61859.38;5034744;28;20219;-75
2021/08/05 02:15:34;;;;;;;15.60;6.40;;;;;;;-140.05;100.00;61859.38;5021476;28;20189;-74
2021/08/05 02:18:04;;;;;;;16.40;6.77;;;;;;;-140.05;100.00;61859.38;5033503;28;20204;-74
2021/08/05 02:20:32;;;;;;;15.57;5.87;;;;;;;-140.05;100.00;61859.38;5031360;28;20227;-78
2021/08/05 02:22:59;;;;;;;12.23;6.73;;;;;;;-140.05;100.00;61859.38;5032636;28;20313;-79
2021/08/05 02:25:27;;;;;;;14.97;6.57;;;;;;;-140.05;100.00;61859.38;5032285;28;20201;-77
2021/08/05 02:27:55;;;;;;;13.90;6.50;;;;;;;-140.05;100.00;61859.38;5030741;28;20209;-76
2021/08/05 02:30:22;;;;;;;15.37;6.37;;;;;;;-140.05;100.00;61859.38;5030422;28;20211;-74
2021/08/05 02:32:49;;;;;;;16.83;6.63;;;;;;;-140.05;100.00;61859.38;5031575;28;20204;-75
2021/08/05 02:35:18;;;;;;;14.57;6.03;;;;;;;-140.05;100.00;61859.38;5031471;28;20193;-75
2021/08/05 02:37:46;;;;;;;17.33;6.93;;;;;;;-140.05;100.00;61859.38;5032368;28;20224;-75
2021/08/05 02:40:15;;;;;;;17.63;6.50;;;;;;;-140.05;100.00;61859.38;5016518;28;20301;-75
2021/08/05 02:42:45;;;;;;;19.43;6.67;;;;;;;-140.05;100.00;61859.38;5030577;28;20711;-75
2021/08/05 02:45:14;;;;;;;16.47;6.37;;;;;;;-140.05;100.00;61859.38;5030141;28;20201;-74
2021/08/05 02:47:42;;;;;;;18.60;6.70;;;;;;;-140.05;100.00;61859.38;5030033;28;20205;-73
2021/08/05 02:50:10;;;;;;;17.27;6.07;;;;;;;-140.05;100.00;61859.38;5030104;28;20616;-76
2021/08/05 02:52:39;;;;;;;17.23;7.37;;;;;;;-140.05;100.00;61859.38;5014448;28;20596;-75
2021/08/05 02:55:07;;;;;;;14.17;6.70;;;;;;;-140.05;100.00;61859.38;5010187;28;20569;-75
2021/08/05 02:57:36;;;;;;;16.70;7.13;;;;;;;-140.05;100.00;61859.38;5040798;28;20201;-76
2021/08/05 03:00:05;;;;;;;17.17;6.87;;;;;;;-140.05;100.00;61859.38;5031578;28;20229;-75
2021/08/05 03:02:33;;;;;;;13.17;6.37;;;;;;;-140.05;100.00;61859.38;5030907;28;20288;-74
2021/08/05 03:05:02;;;;;;;13.60;6.37;;;;;;;-140.05;100.00;61859.38;5032479;28;20204;-75
2021/08/05 03:07:28;;;;;;;12.67;6.30;;;;;;;-140.05;100.00;61859.38;5037586;28;20239;-74
2021/08/05 03:09:55;;;;;;;21.83;8.20;;;;;;;-140.05;100.00;61859.38;5026633;28;20193;-75
2021/08/05 03:12:22;;;;;;;15.93;8.30;;;;;;;-140.05;100.00;61859.38;5011756;28;20302;-78
2021/08/05 03:14:49;;;;;;;21.93;9.53;;;;;;;-140.05;100.00;61859.38;5013395;28;20201;-78
2021/08/05 03:17:16;;;;;;;18.77;9.03;;;;;;;-140.05;100.00;61859.38;5023519;28;20194;-76
2021/08/05 03:19:43;;;;;;;21.77;8.87;;;;;;;-140.05;100.00;61859.38;5011778;28;20193;-74
2021/08/05 03:22:10;;;;;;;17.50;8.30;;;;;;;-140.05;100.00;61859.38;5024727;28;20195;-75
2021/08/05 03:24:37;;;;;;;19.43;8.80;;;;;;;-140.05;100.00;61859.38;5024259;28;20200;-72
2021/08/05 03:27:04;;;;;;;18.90;8.50;;;;;;;-140.05;100.00;61859.38;5012202;28;20289;-77
2021/08/05 03:29:31;;;;;;;19.17;8.40;;;;;;;-140.05;100.00;61859.38;5022258;28;20683;-72
2021/08/05 03:31:58;;;;;;;17.33;8.23;;;;;;;-140.05;100.00;61859.38;5016236;28;20229;-73
2021/08/05 03:34:25;;;;;;;18.77;8.23;;;;;;;-140.05;100.00;61859.38;5021966;28;20290;-74
2021/08/05 03:36:54;;;;;;;19.60;8.23;;;;;;;-140.05;100.00;61859.38;5012378;28;20682;-76
2021/08/05 03:39:21;;;;;;;15.37;7.47;;;;;;;-140.05;100.00;61859.38;5031577;28;20663;-75
2021/08/05 03:41:48;;;;;;;16.40;7.90;;;;;;;-140.05;100.00;61859.38;5031579;28;20247;-74
2021/08/05 03:44:15;;;;;;;18.63;7.27;;;;;;;-140.05;100.00;61859.38;5030315;28;20237;-73
2021/08/05 03:46:43;;;;;;;16.83;8.40;;;;;;;-140.05;100.00;61859.38;5017894;28;20212;-73
2021/08/05 03:49:10;;;;;;;17.83;8.80;;;;;;;-140.05;100.00;61859.38;5029610;28;20208;-75
2021/08/05 03:51:37;;;;;;;22.37;7.90;;;;;;;-140.05;100.00;61859.38;5024047;28;20213;-79
2021/08/05 03:54:04;;;;;;;18.07;7.70;;;;;;;-140.05;100.00;61859.38;5024406;28;20260;-75
2021/08/05 03:56:33;;;;;;;17.70;7.83;;;;;;;-140.05;100.00;61859.38;5030478;28;20652;-75
2021/08/05 03:59:00;;;;;;;16.37;8.13;;;;;;;-140.05;100.00;61859.38;5018455;28;20198;-74
2021/08/05 04:01:27;;;;;;;17.23;7.67;;;;;;;-140.05;100.00;61859.38;5020293;28;20278;-77
2021/08/05 04:03:54;;;;;;;19.07;7.73;;;;;;;-140.05;100.00;61859.38;5027836;28;20201;-73
2021/08/05 04:06:22;;;;;;;22.63;9.63;;;;;;;-140.05;100.00;61859.38;5026648;28;20201;-80
2021/08/05 04:08:49;;;;;;;20.70;8.90;;;;;;;-140.05;100.00;61859.38;5030578;28;20194;-75
2021/08/05 04:11:16;;;;;;;20.03;7.67;;;;;;;-140.05;100.00;61859.38;5029687;28;20241;-76
2021/08/05 04:13:44;;;;;;;21.03;8.40;;;;;;;-140.05;100.00;61859.38;5023142;28;20217;-75
2021/08/05 04:16:11;;;;;;;14.97;7.40;;;;;;;-140.05;100.00;61859.38;5029750;28;20197;-75
2021/08/05 04:18:38;;;;;;;20.13;7.73;;;;;;;-140.05;100.00;61859.38;5023145;28;20272;-73
2021/08/05 04:21:05;;;;;;;19.27;8.13;;;;;;;-140.05;100.00;61859.38;5029158;28;20694;-72
2021/08/05 04:23:32;;;;;;;21.13;8.27;;;;;;;-140.05;100.00;61859.38;5022320;28;20197;-73
2021/08/05 04:25:59;;;;;;;20.90;8.20;;;;;;;-140.05;100.00;61859.38;5025681;28;20259;-71
2021/08/05 04:28:26;;;;;;;20.40;8.37;;;;;;;-140.05;100.00;61859.38;5029947;28;20682;-74
2021/08/05 04:30:53;;;;;;;20.97;8.30;;;;;;;-140.05;100.00;61859.38;5029988;28;20209;-73
2021/08/05 04:33:20;;;;;;;28.20;9.13;;;;;;;-140.05;100.00;61859.38;5030044;28;20287;-72
2021/08/05 04:35:47;;;;;;;16.83;8.53;;;;;;;-140.05;100.00;61859.38;5028280;28;20228;-71
2021/08/05 04:38:14;;;;;;;22.97;8.27;;;;;;;-140.05;100.00;61859.38;5030859;28;20200;-70
2021/08/05 04:40:42;;;;;;;24.10;8.63;;;;;;;-140.05;100.00;61859.38;5029252;28;20266;-79
2021/08/05 04:43:09;;;;;;;20.17;8.20;;;;;;;-140.05;100.00;61859.38;5031394;28;20237;-75
2021/08/05 04:45:36;;;;;;;38.07;8.93;;;;;;;-140.05;100.00;61859.38;5034385;28;20197;-73
2021/08/05 04:48:07;;;;;;;16.63;7.83;;;;;;;-140.05;100.00;61859.38;5034688;28;20235;-73
2021/08/05 04:50:38;;;;;;;26.10;8.70;;;;;;;-140.05;100.00;61859.38;5034256;28;20251;-73
2021/08/05 04:53:06;;;;;;;22.20;8.67;;;;;;;-140.05;100.00;61859.38;5035417;28;20552;-73
2021/08/05 04:55:34;;;;;;;22.57;8.37;;;;;;;-140.05;100.00;61859.38;5035006;28;20679;-73
2021/08/05 04:58:03;;;;;;;20.83;8.90;;;;;;;-140.05;100.00;61859.38;5035286;28;20201;-71
2021/08/05 05:00:34;;;;;;;19.93;8.67;;;;;;;-140.05;100.00;61859.38;5030617;28;20203;-70
2021/08/05 05:03:02;;;;;;;21.27;9.40;;;;;;;-140.05;100.00;61859.38;5034708;28;20301;-72
2021/08/05 05:05:29;;;;;;;22.83;11.23;;;;;;;-140.05;100.00;61859.38;5024006;28;20292;-73
2021/08/05 05:07:58;;;;;;;64.87;47.50;;;;;;;-140.05;100.00;61859.38;5031965;28;20197;-73
2021/08/05 05:10:25;;;;;;;24.80;10.17;;;;;;;-140.05;100.00;61859.38;5033331;28;20274;-81
2021/08/05 05:12:52;;;;;;;246.80;185.83;;;;;;;-140.05;100.00;61859.38;5033063;28;20225;-76
2021/08/05 05:15:20;;;;;;;139.60;112.87;;;;;;;-140.05;100.00;61859.38;5023247;28;20197;-76
2021/08/05 05:17:47;;;;;;;61.73;51.30;;;;;;;-140.05;100.00;61859.38;5033712;28;20216;-74
2021/08/05 05:20:15;;;;;;;21.80;9.47;;;;;;;-140.05;100.00;61859.38;5032879;28;20195;-75
2021/08/05 05:22:42;;;;;;;24.87;9.97;;;;;;;-140.05;100.00;61859.38;5033173;28;20583;-76
2021/08/05 05:25:11;;;;;;;21.50;8.90;;;;;;;-140.05;100.00;61859.38;5018222;28;20190;-75
2021/08/05 05:27:42;;;;;;;21.43;11.23;;;;;;;-140.05;100.00;61859.38;5025396;28;20574;-73
2021/08/05 05:30:11;;;;;;;27.37;16.90;;;;;;;-140.05;100.00;61859.38;5032179;28;20732;-75
2021/08/05 05:32:39;;;;;;;48.63;38.57;;;;;;;-140.05;100.00;61859.38;5031543;28;20301;-71
2021/08/05 05:35:07;;;;;;;24.87;15.67;;;;;;;-140.05;100.00;61859.38;5029244;28;20674;-72
2021/08/05 05:37:34;;;;;;;20.83;9.80;;;;;;;-140.05;100.00;61859.38;5024062;28;20186;-70
2021/08/05 05:40:02;;;;;;;26.40;11.33;;;;;;;-140.05;100.00;61859.38;5024415;28;20312;-71
2021/08/05 05:42:30;;;;;;;17.03;9.77;;;;;;;-140.05;100.00;61859.38;5024700;28;20260;-71
2021/08/05 05:44:57;;;;;;;22.03;9.43;;;;;;;-140.05;100.00;61859.38;5029449;28;20216;-71
2021/08/05 05:47:26;;;;;;;23.63;10.90;;;;;;;-140.05;100.00;61859.38;5030351;28;20189;-71
2021/08/05 05:49:54;;;;;;;24.20;9.70;;;;;;;-140.05;100.00;61859.38;5032476;28;20201;-71
2021/08/05 05:52:22;;;;;;;16.60;9.87;;;;;;;-140.05;100.00;61859.38;5033765;28;20371;-71
2021/08/05 05:54:49;;;;;;;23.73;10.83;;;;;;;-140.05;100.00;61859.38;5011628;28;20205;-71
2021/08/05 05:57:16;;;;;;;20.90;10.23;;;;;;;-140.05;100.00;61859.38;5025694;28;20684;-70
2021/08/05 05:59:43;;;;;;;25.57;10.10;;;;;;;-140.05;100.00;61859.38;5032621;28;20208;-71
2021/08/05 06:02:10;;;;;;;15.60;9.83;;;;;;;-140.05;100.00;61859.38;5023395;28;20206;-71
2021/08/05 06:04:37;;;;;;;17.10;10.07;;;;;;;-140.05;100.00;61859.38;5028414;28;20262;-71
2021/08/05 06:07:04;;;;;;;17.23;9.50;;;;;;;-140.05;100.00;61859.38;5032252;28;20185;-71
2021/08/05 06:09:31;;;;;;;17.03;10.30;;;;;;;-140.05;100.00;61859.38;5018283;28;20715;-71
2021/08/05 06:11:58;;;;;;;18.20;9.93;;;;;;;-140.05;100.00;61859.38;5032500;28;20227;-71
2021/08/05 06:14:25;;;;;;;23.73;9.97;;;;;;;-140.05;100.00;61859.38;5032774;28;20651;-71
2021/08/05 06:16:52;;;;;;;19.20;10.77;;;;;;;-140.05;100.00;61859.38;5026180;28;20202;-72
2021/08/05 06:19:19;;;;;;;19.20;10.47;;;;;;;-140.05;100.00;61859.38;5023967;28;20312;-71
2021/08/05 06:21:46;;;;;;;23.00;10.33;;;;;;;-140.05;100.00;61859.38;5031927;28;20201;-71
2021/08/05 06:24:13;;;;;;;22.37;10.90;;;;;;;-140.05;100.00;61859.38;5022725;28;20730;-71
2021/08/05 06:26:41;;;;;;;22.63;10.57;;;;;;;-140.05;100.00;61859.38;5013498;28;20197;-72
2021/08/05 06:29:09;;;;;;;17.67;10.30;;;;;;;-140.05;100.00;61859.38;5024837;28;20198;-71
2021/08/05 06:31:37;;;;;;;18.90;10.50;;;;;;;-140.05;100.00;61859.38;5027581;28;20299;-72
2021/08/05 06:34:05;;;;;;;18.30;11.40;;;;;;;-140.05;100.00;61859.38;5032586;28;20199;-72
2021/08/05 06:36:32;;;;;;;19.00;10.60;;;;;;;-140.05;100.00;61859.38;5032101;28;20648;-71
2021/08/05 06:38:59;;;;;;;19.10;10.20;;;;;;;-140.05;100.00;61859.38;5017826;28;20193;-72
2021/08/05 06:41:26;;;;;;;17.70;10.10;;;;;;;-140.05;100.00;61859.38;5031611;28;20576;-72
2021/08/05 06:43:55;;;;;;;20.17;10.80;;;;;;;-140.05;100.00;61859.38;5030502;28;20217;-71
2021/08/05 06:46:22;;;;;;;28.97;11.20;;;;;;;-140.05;100.00;61859.38;5031194;28;20697;-72
2021/08/05 06:48:49;;;;;;;22.93;11.47;;;;;;;-140.05;100.00;61859.38;5028168;28;20205;-71
2021/08/05 06:51:16;;;;;;;22.33;11.03;;;;;;;-140.05;100.00;61859.38;5031339;28;20275;-71
2021/08/05 06:53:43;;;;;;;22.23;10.50;;;;;;;-140.05;100.00;61859.38;5031748;28;20199;-71
2021/08/05 06:56:10;;;;;;;22.80;11.73;;;;;;;-140.05;100.00;61859.38;5017245;28;20229;-71
2021/08/05 06:58:37;;;;;;;21.47;10.97;;;;;;;-140.05;100.00;61859.38;5031513;28;20193;-71
2021/08/05 07:01:04;;;;;;;26.27;11.13;;;;;;;-140.05;100.00;61859.38;5017308;28;20237;-70
2021/08/05 07:03:31;;;;;;;20.27;11.27;;;;;;;-140.05;100.00;61859.38;5031580;28;20217;-70
2021/08/05 07:05:59;;;;;;;20.47;10.67;;;;;;;-140.05;100.00;61859.38;5017058;28;20683;-74
2021/08/05 07:08:25;;;;;;;18.63;10.70;;;;;;;-140.05;100.00;61859.38;5011772;28;20208;-72
2021/08/05 07:10:52;;;;;;;21.37;10.23;;;;;;;-140.05;100.00;61859.38;5023601;28;20194;-71
2021/08/05 07:13:19;;;;;;;24.50;11.17;;;;;;;-140.05;100.00;61859.38;5018479;28;20300;-71
2021/08/05 07:15:47;;;;;;;25.67;10.77;;;;;;;-140.05;100.00;61859.38;5031307;28;20213;-72
2021/08/05 07:18:14;;;;;;;20.33;11.13;;;;;;;-140.05;100.00;61859.38;5017472;28;20194;-72
2021/08/05 07:20:40;;;;;;;19.40;10.27;;;;;;;-140.05;100.00;61859.38;5030858;28;20205;-72
2021/08/05 07:23:07;;;;;;;16.70;9.83;;;;;;;-140.05;100.00;61859.38;5017641;28;20194;-72
2021/08/05 07:25:34;;;;;;;20.90;10.37;;;;;;;-140.05;100.00;61859.38;5030638;28;20655;-72
2021/08/05 07:28:02;;;;;;;18.37;9.57;;;;;;;-140.05;100.00;61859.38;5018172;28;20198;-72
2021/08/05 07:30:30;;;;;;;13.50;9.40;;;;;;;-140.05;100.00;61859.38;5029895;28;20251;-71
2021/08/05 07:32:58;;;;;;;18.47;10.33;;;;;;;-140.05;100.00;61859.38;5030940;28;20227;-72
2021/08/05 07:35:26;;;;;;;21.63;9.27;;;;;;;-140.05;100.00;61859.38;5012645;28;20256;-71
2021/08/05 07:37:52;;;;;;;20.53;9.87;;;;;;;-140.05;100.00;61859.38;5021815;28;20255;-72
2021/08/05 07:40:19;;;;;;;17.77;10.27;;;;;;;-140.05;100.00;61859.38;5030182;28;20216;-72
2021/08/05 07:42:46;;;;;;;18.97;9.50;;;;;;;-140.05;100.00;61859.38;5022720;28;20598;-72
2021/08/05 07:45:14;;;;;;;17.27;10.03;;;;;;;-140.05;100.00;61859.38;5023993;28;20556;-72
2021/08/05 07:47:41;;;;;;;18.07;10.53;;;;;;;-140.05;100.00;61859.38;5018573;28;20185;-71
2021/08/05 07:50:10;;;;;;;16.80;10.50;;;;;;;-140.05;100.00;61859.38;5030461;28;20664;-71
2021/08/05 07:52:37;;;;;;;22.80;10.37;;;;;;;-140.05;100.00;61859.38;5030144;28;20213;-72
2021/08/05 07:55:06;;;;;;;16.60;9.80;;;;;;;-140.05;100.00;61859.38;5023228;28;20559;-70
2021/08/05 07:57:34;;;;;;;14.57;9.70;;;;;;;-140.05;100.00;61859.38;5011656;28;20209;-71
2021/08/05 08:00:01;;;;;;;20.00;10.17;;;;;;;-140.05;100.00;61859.38;5030878;28;20196;-71
2021/08/05 08:02:28;;;;;;;20.17;10.80;;;;;;;-140.05;100.00;61859.38;5031319;28;20271;-71
2021/08/05 08:04:55;;;;;;;16.57;10.27;;;;;;;-140.05;100.00;61859.38;5030583;28;20227;-71
2021/08/05 08:07:22;;;;;;;15.73;9.93;;;;;;;-140.05;100.00;61859.38;5030826;28;20212;-73
2021/08/05 08:09:50;;;;;;;19.10;10.47;;;;;;;-140.05;100.00;61859.38;5015958;28;20196;-72
2021/08/05 08:12:17;;;;;;;19.83;10.43;;;;;;;-140.05;100.00;61859.38;5020651;28;20295;-71
2021/08/05 08:14:44;;;;;;;25.23;10.67;;;;;;;-140.05;100.00;61859.38;5012078;28;20194;-70
2021/08/05 08:17:11;;;;;;;26.40;10.33;;;;;;;-140.05;100.00;61859.38;5030882;28;20575;-71
2021/08/05 08:19:38;;;;;;;13.17;10.03;;;;;;;-140.05;100.00;61859.38;5016643;28;20198;-72
2021/08/05 08:22:06;;;;;;;20.33;10.27;;;;;;;-140.05;100.00;61859.38;5016510;28;20201;-71
2021/08/05 08:24:33;;;;;;;17.13;10.07;;;;;;;-140.05;100.00;61859.38;5030670;28;20204;-71
2021/08/05 08:27:01;;;;;;;24.80;10.50;;;;;;;-140.05;100.00;61859.38;5015425;28;20227;-71
2021/08/05 08:29:28;;;;;;;22.90;11.00;;;;;;;-140.05;100.00;61859.38;5030335;28;20698;-70
2021/08/05 08:31:55;;;;;;;22.23;11.27;;;;;;;-140.05;100.00;61859.38;5029421;28;20189;-72
2021/08/05 08:34:22;;;;;;;22.97;11.13;;;;;;;-140.05;100.00;61859.38;5020823;28;20228;-72
2021/08/05 08:36:49;;;;;;;19.80;10.13;;;;;;;-140.05;100.00;61859.38;5011218;28;20209;-71
2021/08/05 08:39:16;;;;;;;15.87;9.97;;;;;;;-140.05;100.00;61859.38;5030646;28;20200;-71
2021/08/05 08:41:43;;;;;;;19.77;11.07;;;;;;;-140.05;100.00;61859.38;5029931;28;20204;-71
2021/08/05 08:44:13;;;;;;;21.47;10.70;;;;;;;-140.05;100.00;61859.38;5009951;28;20252;-72
2021/08/05 08:46:41;;;;;;;16.63;10.20;;;;;;;-140.05;100.00;61859.38;5009771;28;20205;-72
2021/08/05 08:49:08;;;;;;;18.37;9.83;;;;;;;-140.05;100.00;61859.38;5024706;28;20236;-72
2021/08/05 08:51:36;;;;;;;17.30;10.50;;;;;;;-140.05;100.00;61859.38;5022752;28;20189;-71
2021/08/05 08:54:08;;;;;;;24.13;10.83;;;;;;;-140.05;100.00;61859.38;5023614;28;20220;-71
2021/08/05 08:56:39;;;;;;;22.33;9.93;;;;;;;-140.05;100.00;61859.38;5015607;28;20227;-71
2021/08/05 08:59:06;;;;;;;17.17;9.73;;;;;;;-140.05;100.00;61859.38;5017310;28;20256;-71
2021/08/05 09:01:39;;;;;;;22.43;10.20;;;;;;;-140.05;100.00;61859.38;5023165;28;20684;-71
2021/08/05 09:04:07;;;;;;;24.13;10.67;;;;;;;-140.05;100.00;61859.38;5010408;28;20289;-70
2021/08/05 09:06:35;;;;;;;21.20;10.20;;;;;;;-140.05;100.00;61859.38;5027686;28;20276;-71
2021/08/05 09:09:06;;;;;;;23.50;10.63;;;;;;;-140.05;100.00;61859.38;5030587;28;20568;-71
2021/08/05 09:11:34;;;;;;;22.47;10.50;;;;;;;-140.05;100.00;61859.38;5029358;28;20232;-70
2021/08/05 09:14:01;;;;;;;20.07;10.53;;;;;;;-140.05;100.00;61859.38;5018684;28;20217;-70
2021/08/05 09:16:32;;;;;;;22.07;10.30;;;;;;;-140.05;100.00;61859.38;5025790;28;20290;-71
2021/08/05 09:19:19;;;;;;;22.77;10.60;;;;;;;-140.05;100.00;61859.38;5021876;28;20229;-71
2021/08/05 09:21:51;;;;;;;18.50;10.03;;;;;;;-140.05;100.00;61859.38;5029292;28;20190;-70
2021/08/05 09:24:28;;;;;;;24.27;9.60;;;;;;;-140.05;100.00;61859.38;5033433;28;20201;-70
2021/08/05 09:26:59;;;;;;;25.10;10.50;;;;;;;-140.05;100.00;61859.38;5030410;28;20185;-71
2021/08/05 09:29:27;;;;;;;22.13;10.60;;;;;;;-140.05;100.00;61859.38;5035288;28;20200;-71
2021/08/05 09:31:54;;;;;;;21.93;10.27;;;;;;;-140.05;100.00;61859.38;5019180;28;20197;-71
2021/08/05 09:34:23;;;;;;;18.27;9.33;;;;;;;-140.05;100.00;61859.38;5025226;28;20200;-70
2021/08/05 09:36:59;;;;;;;27.13;10.10;;;;;;;-140.05;100.00;61859.38;5019976;28;20275;-71
2021/08/05 09:39:32;;;;;;;22.00;9.47;;;;;;;-140.05;100.00;61859.38;5033918;28;20233;-71
2021/08/05 09:42:03;;;;;;;21.47;10.10;;;;;;;-140.05;100.00;61859.38;5030755;28;20189;-71
2021/08/05 09:44:39;;;;;;;22.30;9.07;;;;;;;-140.05;100.00;61859.38;5013376;28;20264;-71
2021/08/05 09:47:10;;;;;;;23.27;10.37;;;;;;;-140.05;100.00;61859.38;5026691;28;20197;-70
2021/08/05 09:49:39;;;;;;;28.77;9.67;;;;;;;-140.05;100.00;61859.38;5031734;28;20612;-71
2021/08/05 09:52:10;;;;;;;25.90;10.43;;;;;;;-140.05;100.00;61859.38;5032999;28;20200;-71
2021/08/05 09:54:41;;;;;;;25.00;9.53;;;;;;;-140.05;100.00;61859.38;5014862;28;20194;-72
2021/08/05 09:57:10;;;;;;;20.77;9.90;;;;;;;-140.05;100.00;61859.38;5023977;28;20205;-72
2021/08/05 10:00:04;;;;;;;25.20;10.47;;;;;;;-140.05;100.00;61859.38;5033136;28;20677;-72
2021/08/05 10:02:48;;;;;;;22.83;10.33;;;;;;;-140.05;100.00;61859.38;5018613;28;20288;-69
2021/08/05 10:05:17;;;;;;;28.40;10.87;;;;;;;-140.05;100.00;61859.38;5032006;28;20204;-71
2021/08/05 10:07:56;;;;;;;30.50;11.07;;;;;;;-140.05;100.00;61859.38;5032575;28;20197;-70
2021/08/05 10:10:26;;;;;;;32.37;10.90;;;;;;;-140.05;100.00;61859.38;5019954;28;20201;-70
2021/08/05 10:12:55;;;;;;;27.13;11.10;;;;;;;-140.05;100.00;61859.38;5031983;28;20224;-71
2021/08/05 10:15:22;;;;;;;28.87;10.63;;;;;;;-140.05;100.00;61859.38;5032051;28;20201;-71
2021/08/05 10:17:52;;;;;;;26.03;11.27;;;;;;;-140.05;100.00;61859.38;5032089;28;20205;-72
2021/08/05 10:20:21;;;;;;;25.13;11.23;;;;;;;-140.05;100.00;61859.38;5017778;28;20574;-70
2021/08/05 10:22:50;;;;;;;31.13;10.17;;;;;;;-140.05;100.00;61859.38;5020133;28;20205;-71
2021/08/05 10:25:25;;;;;;;26.03;10.53;;;;;;;-140.05;100.00;61859.38;5025560;28;20190;-70
2021/08/05 10:27:54;;;;;;;31.93;11.20;;;;;;;-140.05;100.00;61859.38;5023928;28;20215;-71
2021/08/05 10:30:22;;;;;;;26.63;11.13;;;;;;;-140.05;100.00;61859.38;5013170;28;20682;-71
2021/08/05 10:32:52;;;;;;;27.40;10.67;;;;;;;-140.05;100.00;61859.38;5022689;28;20206;-70
2021/08/05 10:35:19;;;;;;;27.90;11.07;;;;;;;-140.05;100.00;61859.38;5028485;28;20190;-70
2021/08/05 10:37:48;;;;;;;27.93;11.93;;;;;;;-140.05;100.00;61859.38;5021256;28;20185;-71
2021/08/05 10:40:16;;;;;;;30.00;11.60;;;;;;;-140.05;100.00;61859.38;5031207;28;20560;-71
2021/08/05 10:42:45;;;;;;;30.33;11.50;;;;;;;-140.05;100.00;61859.38;5031805;28;20240;-71
2021/08/05 10:45:15;;;;;;;36.27;11.20;;;;;;;-140.05;100.00;61859.38;5031055;28;20201;-70
2021/08/05 10:47:45;;;;;;;22.80;11.33;;;;;;;-140.05;100.00;61859.38;5015322;28;20189;-71
2021/08/05 10:50:16;;;;;;;29.50;11.33;;;;;;;-140.05;100.00;61859.38;5031831;28;20233;-71
2021/08/05 10:52:47;;;;;;;31.53;10.83;;;;;;;-140.05;100.00;61859.38;5017306;28;20320;-71
2021/08/05 10:55:15;;;;;;;25.67;11.10;;;;;;;-140.05;100.00;61859.38;5031316;28;20201;-71
2021/08/05 10:57:45;;;;;;;32.40;11.97;;;;;;;-140.05;100.00;61859.38;5017947;28;20202;-71
2021/08/05 11:00:16;;;;;;;31.60;11.80;;;;;;;-140.05;100.00;61859.38;5029732;28;20218;-72
2021/08/05 11:02:54;;;;;;;33.00;12.57;;;;;;;-140.05;100.00;61859.38;5031755;28;20193;-71
2021/08/05 11:05:22;;;;;;;24.90;10.30;;;;;;;-140.05;100.00;61859.38;5031429;28;20196;-71
2021/08/05 11:08:11;;;;;;;41.00;12.30;;;;;;;-140.05;100.00;61859.38;5031250;28;20193;-72